Terminal Aerodrome Forecast
Issued by NWS Shreveport, LA

Home | Current Version | Previous Version | Text Only | Print | Product List | Glossary On
Versions: 1 2 3 4 5 6 7 8 9 10 11 12 13
000
FTUS44 KSHV 212348
TAFGGG
TAF
KGGG 212348Z 2200/2224 15011KT P6SM SCT040 SCT150 BKN250
     FM220400 17013KT P6SM BKN020
     FM220600 17013KT P6SM BKN015
     FM220900 20011KT P6SM VCTS BKN015CB
      TEMPO 2209/2213 VRB15G25KT 2SM TSRA BKN015CB
     FM221300 31012KT 5SM -TSRA BKN015CB
     FM221500 32017G24KT P6SM OVC030
     FM222100 34014G20KT P6SM OVC015=

USA.gov is the U.S. government's official web portal to all federal, state and local government web resources and services.